sensor_id;sensor_type;location;lat;lon;timestamp;P1;durP1;ratioP1;P2;durP2;ratioP2
24547;SDS011;12713;51.624;4.924;2023-07-29T00:01:22;11.77;;;6.63;;
24547;SDS011;12713;51.624;4.924;2023-07-29T00:03:48;9.73;;;5.88;;
24547;SDS011;12713;51.624;4.924;2023-07-29T00:06:14;7.30;;;4.80;;
24547;SDS011;12713;51.624;4.924;2023-07-29T00:08:41;9.55;;;5.90;;
24547;SDS011;12713;51.624;4.924;2023-07-29T00:11:07;10.13;;;5.60;;
24547;SDS011;12713;51.624;4.924;2023-07-29T00:13:33;10.13;;;6.30;;
24547;SDS011;12713;51.624;4.924;2023-07-29T00:15:59;12.30;;;7.05;;
24547;SDS011;12713;51.624;4.924;2023-07-29T00:18:25;10.45;;;6.38;;
24547;SDS011;12713;51.624;4.924;2023-07-29T00:20:52;12.95;;;7.47;;
24547;SDS011;12713;51.624;4.924;2023-07-29T00:23:18;11.10;;;6.63;;
24547;SDS011;12713;51.624;4.924;2023-07-29T00:25:44;7.47;;;5.30;;
24547;SDS011;12713;51.624;4.924;2023-07-29T00:28:11;11.55;;;5.68;;
24547;SDS011;12713;51.624;4.924;2023-07-29T00:30:37;8.73;;;5.05;;
24547;SDS011;12713;51.624;4.924;2023-07-29T00:33:03;11.20;;;6.78;;
24547;SDS011;12713;51.624;4.924;2023-07-29T00:35:29;8.95;;;6.15;;
24547;SDS011;12713;51.624;4.924;2023-07-29T00:37:55;7.53;;;5.45;;
24547;SDS011;12713;51.624;4.924;2023-07-29T00:40:22;9.95;;;5.22;;
24547;SDS011;12713;51.624;4.924;2023-07-29T00:42:49;7.20;;;5.60;;
24547;SDS011;12713;51.624;4.924;2023-07-29T00:45:15;8.65;;;4.38;;
24547;SDS011;12713;51.624;4.924;2023-07-29T00:47:42;8.10;;;4.70;;
24547;SDS011;12713;51.624;4.924;2023-07-29T00:50:12;6.15;;;4.05;;
24547;SDS011;12713;51.624;4.924;2023-07-29T00:52:38;6.68;;;4.72;;
24547;SDS011;12713;51.624;4.924;2023-07-29T00:55:04;8.60;;;4.18;;
24547;SDS011;12713;51.624;4.924;2023-07-29T00:57:30;7.30;;;4.25;;
24547;SDS011;12713;51.624;4.924;2023-07-29T00:59:57;6.65;;;4.40;;
24547;SDS011;12713;51.624;4.924;2023-07-29T01:02:26;7.40;;;4.43;;
24547;SDS011;12713;51.624;4.924;2023-07-29T01:04:53;8.65;;;4.22;;
24547;SDS011;12713;51.624;4.924;2023-07-29T01:07:30;5.90;;;4.15;;
24547;SDS011;12713;51.624;4.924;2023-07-29T01:10:03;5.78;;;4.07;;
24547;SDS011;12713;51.624;4.924;2023-07-29T01:12:35;9.10;;;4.35;;
24547;SDS011;12713;51.624;4.924;2023-07-29T01:17:30;5.47;;;3.60;;
24547;SDS011;12713;51.624;4.924;2023-07-29T01:20:00;5.50;;;3.53;;
24547;SDS011;12713;51.624;4.924;2023-07-29T01:22:28;7.53;;;4.57;;
24547;SDS011;12713;51.624;4.924;2023-07-29T01:24:56;6.28;;;4.03;;
24547;SDS011;12713;51.624;4.924;2023-07-29T01:27:22;4.85;;;3.47;;
24547;SDS011;12713;51.624;4.924;2023-07-29T01:29:48;4.65;;;3.40;;
24547;SDS011;12713;51.624;4.924;2023-07-29T01:32:19;9.38;;;3.53;;
24547;SDS011;12713;51.624;4.924;2023-07-29T01:34:48;5.72;;;2.78;;
24547;SDS011;12713;51.624;4.924;2023-07-29T01:37:16;4.43;;;2.72;;
24547;SDS011;12713;51.624;4.924;2023-07-29T01:39:47;7.53;;;3.20;;
24547;SDS011;12713;51.624;4.924;2023-07-29T01:42:14;3.47;;;2.30;;
24547;SDS011;12713;51.624;4.924;2023-07-29T01:44:40;5.78;;;2.38;;
24547;SDS011;12713;51.624;4.924;2023-07-29T01:47:07;4.93;;;2.17;;
24547;SDS011;12713;51.624;4.924;2023-07-29T01:49:33;4.07;;;2.67;;
24547;SDS011;12713;51.624;4.924;2023-07-29T01:51:59;11.10;;;2.42;;
24547;SDS011;12713;51.624;4.924;2023-07-29T01:54:25;4.03;;;2.33;;
24547;SDS011;12713;51.624;4.924;2023-07-29T01:56:51;4.40;;;2.40;;
24547;SDS011;12713;51.624;4.924;2023-07-29T01:59:18;6.03;;;2.38;;
24547;SDS011;12713;51.624;4.924;2023-07-29T02:01:44;6.47;;;2.42;;
24547;SDS011;12713;51.624;4.924;2023-07-29T02:04:11;6.65;;;3.15;;
24547;SDS011;12713;51.624;4.924;2023-07-29T02:06:37;3.25;;;2.20;;
24547;SDS011;12713;51.624;4.924;2023-07-29T02:09:03;5.57;;;2.63;;
24547;SDS011;12713;51.624;4.924;2023-07-29T02:11:29;3.15;;;2.17;;
24547;SDS011;12713;51.624;4.924;2023-07-29T02:13:56;4.28;;;2.13;;
24547;SDS011;12713;51.624;4.924;2023-07-29T02:16:22;5.82;;;2.15;;
24547;SDS011;12713;51.624;4.924;2023-07-29T02:18:48;3.78;;;2.53;;
24547;SDS011;12713;51.624;4.924;2023-07-29T02:21:15;3.40;;;1.88;;
24547;SDS011;12713;51.624;4.924;2023-07-29T02:23:41;4.88;;;2.50;;
24547;SDS011;12713;51.624;4.924;2023-07-29T02:26:07;5.60;;;2.78;;
24547;SDS011;12713;51.624;4.924;2023-07-29T02:28:33;3.45;;;1.98;;
24547;SDS011;12713;51.624;4.924;2023-07-29T02:33:55;2.95;;;2.13;;
24547;SDS011;12713;51.624;4.924;2023-07-29T02:36:21;4.03;;;2.00;;
24547;SDS011;12713;51.624;4.924;2023-07-29T02:38:47;2.90;;;1.98;;
24547;SDS011;12713;51.624;4.924;2023-07-29T02:41:13;3.33;;;2.38;;
24547;SDS011;12713;51.624;4.924;2023-07-29T02:43:41;4.28;;;2.05;;
24547;SDS011;12713;51.624;4.924;2023-07-29T02:46:07;4.43;;;2.28;;
24547;SDS011;12713;51.624;4.924;2023-07-29T02:48:34;4.07;;;2.00;;
24547;SDS011;12713;51.624;4.924;2023-07-29T02:51:00;3.45;;;2.63;;
24547;SDS011;12713;51.624;4.924;2023-07-29T02:53:26;4.20;;;2.47;;
24547;SDS011;12713;51.624;4.924;2023-07-29T02:55:52;4.35;;;2.50;;
24547;SDS011;12713;51.624;4.924;2023-07-29T02:58:18;4.10;;;2.45;;
24547;SDS011;12713;51.624;4.924;2023-07-29T03:00:44;4.38;;;2.47;;
24547;SDS011;12713;51.624;4.924;2023-07-29T03:03:10;4.70;;;2.55;;
24547;SDS011;12713;51.624;4.924;2023-07-29T03:05:36;4.97;;;2.45;;
24547;SDS011;12713;51.624;4.924;2023-07-29T03:08:03;5.60;;;2.65;;
24547;SDS011;12713;51.624;4.924;2023-07-29T03:10:29;4.00;;;2.53;;
24547;SDS011;12713;51.624;4.924;2023-07-29T03:12:55;4.10;;;2.33;;
24547;SDS011;12713;51.624;4.924;2023-07-29T03:15:24;4.45;;;2.50;;
24547;SDS011;12713;51.624;4.924;2023-07-29T03:17:51;6.93;;;3.20;;
24547;SDS011;12713;51.624;4.924;2023-07-29T03:20:17;7.22;;;3.38;;
24547;SDS011;12713;51.624;4.924;2023-07-29T03:22:43;5.00;;;2.65;;
24547;SDS011;12713;51.624;4.924;2023-07-29T03:25:09;5.20;;;3.45;;
24547;SDS011;12713;51.624;4.924;2023-07-29T03:27:35;4.63;;;3.50;;
24547;SDS011;12713;51.624;4.924;2023-07-29T03:30:05;5.50;;;3.60;;
24547;SDS011;12713;51.624;4.924;2023-07-29T03:32:32;7.20;;;3.70;;
24547;SDS011;12713;51.624;4.924;2023-07-29T03:34:58;8.05;;;3.50;;
24547;SDS011;12713;51.624;4.924;2023-07-29T03:37:24;5.10;;;3.78;;
24547;SDS011;12713;51.624;4.924;2023-07-29T03:39:50;5.05;;;3.50;;
24547;SDS011;12713;51.624;4.924;2023-07-29T03:42:17;6.38;;;4.07;;
24547;SDS011;12713;51.624;4.924;2023-07-29T03:44:43;8.80;;;3.38;;
24547;SDS011;12713;51.624;4.924;2023-07-29T03:47:09;8.20;;;3.85;;
24547;SDS011;12713;51.624;4.924;2023-07-29T03:49:35;8.02;;;4.43;;
24547;SDS011;12713;51.624;4.924;2023-07-29T03:52:01;5.25;;;3.58;;
24547;SDS011;12713;51.624;4.924;2023-07-29T03:54:27;5.32;;;3.83;;
24547;SDS011;12713;51.624;4.924;2023-07-29T03:56:53;5.93;;;4.18;;
24547;SDS011;12713;51.624;4.924;2023-07-29T03:59:19;8.25;;;4.63;;
24547;SDS011;12713;51.624;4.924;2023-07-29T04:01:47;5.80;;;4.07;;
24547;SDS011;12713;51.624;4.924;2023-07-29T04:04:13;6.95;;;3.67;;
24547;SDS011;12713;51.624;4.924;2023-07-29T04:06:40;8.68;;;4.28;;
24547;SDS011;12713;51.624;4.924;2023-07-29T04:09:06;4.63;;;3.28;;
24547;SDS011;12713;51.624;4.924;2023-07-29T04:11:33;8.77;;;4.95;;
24547;SDS011;12713;51.624;4.924;2023-07-29T04:13:59;8.25;;;3.65;;
24547;SDS011;12713;51.624;4.924;2023-07-29T04:16:25;8.10;;;4.78;;
24547;SDS011;12713;51.624;4.924;2023-07-29T04:18:51;4.63;;;3.97;;
24547;SDS011;12713;51.624;4.924;2023-07-29T04:21:17;7.30;;;4.13;;
24547;SDS011;12713;51.624;4.924;2023-07-29T04:23:43;5.97;;;3.92;;
24547;SDS011;12713;51.624;4.924;2023-07-29T04:26:09;9.52;;;5.25;;
24547;SDS011;12713;51.624;4.924;2023-07-29T04:28:35;9.75;;;4.72;;
24547;SDS011;12713;51.624;4.924;2023-07-29T04:31:01;6.97;;;4.85;;
24547;SDS011;12713;51.624;4.924;2023-07-29T04:33:28;5.63;;;3.75;;
24547;SDS011;12713;51.624;4.924;2023-07-29T04:35:54;8.88;;;4.68;;
24547;SDS011;12713;51.624;4.924;2023-07-29T04:38:20;8.70;;;4.70;;
24547;SDS011;12713;51.624;4.924;2023-07-29T04:40:48;7.10;;;5.47;;
24547;SDS011;12713;51.624;4.924;2023-07-29T04:43:14;7.40;;;5.05;;
24547;SDS011;12713;51.624;4.924;2023-07-29T04:45:43;11.95;;;5.32;;
24547;SDS011;12713;51.624;4.924;2023-07-29T04:48:10;7.00;;;4.93;;
24547;SDS011;12713;51.624;4.924;2023-07-29T04:50:36;8.68;;;5.57;;
24547;SDS011;12713;51.624;4.924;2023-07-29T04:53:02;7.45;;;4.63;;
24547;SDS011;12713;51.624;4.924;2023-07-29T04:55:28;7.18;;;4.82;;
24547;SDS011;12713;51.624;4.924;2023-07-29T04:57:54;7.10;;;4.95;;
24547;SDS011;12713;51.624;4.924;2023-07-29T05:00:20;10.43;;;5.40;;
24547;SDS011;12713;51.624;4.924;2023-07-29T05:02:46;6.97;;;4.25;;
24547;SDS011;12713;51.624;4.924;2023-07-29T05:05:12;9.77;;;5.00;;
24547;SDS011;12713;51.624;4.924;2023-07-29T05:07:38;10.82;;;4.60;;
24547;SDS011;12713;51.624;4.924;2023-07-29T05:10:04;7.07;;;4.13;;
24547;SDS011;12713;51.624;4.924;2023-07-29T05:12:31;8.80;;;4.63;;
24547;SDS011;12713;51.624;4.924;2023-07-29T05:14:57;8.88;;;4.72;;
24547;SDS011;12713;51.624;4.924;2023-07-29T05:17:23;6.10;;;4.90;;
24547;SDS011;12713;51.624;4.924;2023-07-29T05:19:49;6.88;;;5.00;;
24547;SDS011;12713;51.624;4.924;2023-07-29T05:22:15;7.85;;;4.97;;
24547;SDS011;12713;51.624;4.924;2023-07-29T05:24:41;7.07;;;4.25;;
24547;SDS011;12713;51.624;4.924;2023-07-29T05:27:07;9.73;;;5.07;;
24547;SDS011;12713;51.624;4.924;2023-07-29T05:29:33;7.65;;;4.82;;
24547;SDS011;12713;51.624;4.924;2023-07-29T05:32:00;8.88;;;5.18;;
24547;SDS011;12713;51.624;4.924;2023-07-29T05:34:26;6.68;;;4.95;;
24547;SDS011;12713;51.624;4.924;2023-07-29T05:36:52;6.78;;;4.90;;
24547;SDS011;12713;51.624;4.924;2023-07-29T05:39:18;8.15;;;4.97;;
24547;SDS011;12713;51.624;4.924;2023-07-29T05:41:44;10.20;;;5.22;;
24547;SDS011;12713;51.624;4.924;2023-07-29T05:44:10;8.30;;;5.25;;
24547;SDS011;12713;51.624;4.924;2023-07-29T05:46:36;7.18;;;5.10;;
24547;SDS011;12713;51.624;4.924;2023-07-29T05:49:02;7.90;;;5.18;;
24547;SDS011;12713;51.624;4.924;2023-07-29T05:51:28;8.35;;;5.35;;
24547;SDS011;12713;51.624;4.924;2023-07-29T05:53:54;8.50;;;5.28;;
24547;SDS011;12713;51.624;4.924;2023-07-29T05:56:20;5.65;;;4.70;;
24547;SDS011;12713;51.624;4.924;2023-07-29T05:58:46;8.45;;;4.65;;
24547;SDS011;12713;51.624;4.924;2023-07-29T06:01:12;8.55;;;4.75;;
24547;SDS011;12713;51.624;4.924;2023-07-29T06:03:41;7.78;;;4.55;;
24547;SDS011;12713;51.624;4.924;2023-07-29T06:06:07;7.18;;;4.80;;
24547;SDS011;12713;51.624;4.924;2023-07-29T06:08:33;9.05;;;5.00;;
24547;SDS011;12713;51.624;4.924;2023-07-29T06:10:59;10.15;;;4.97;;
24547;SDS011;12713;51.624;4.924;2023-07-29T06:13:26;6.38;;;4.57;;
24547;SDS011;12713;51.624;4.924;2023-07-29T06:15:52;9.15;;;4.95;;
24547;SDS011;12713;51.624;4.924;2023-07-29T06:18:18;6.80;;;4.13;;
24547;SDS011;12713;51.624;4.924;2023-07-29T06:20:44;10.07;;;5.18;;
24547;SDS011;12713;51.624;4.924;2023-07-29T06:23:10;7.72;;;4.82;;
24547;SDS011;12713;51.624;4.924;2023-07-29T06:25:36;6.63;;;5.05;;
24547;SDS011;12713;51.624;4.924;2023-07-29T06:28:02;9.27;;;5.18;;
24547;SDS011;12713;51.624;4.924;2023-07-29T06:30:28;9.38;;;5.60;;
24547;SDS011;12713;51.624;4.924;2023-07-29T06:32:54;8.65;;;4.30;;
24547;SDS011;12713;51.624;4.924;2023-07-29T06:35:23;10.88;;;5.35;;
24547;SDS011;12713;51.624;4.924;2023-07-29T06:37:49;7.22;;;4.88;;
24547;SDS011;12713;51.624;4.924;2023-07-29T06:40:15;7.55;;;4.50;;
24547;SDS011;12713;51.624;4.924;2023-07-29T06:42:41;8.82;;;4.80;;
24547;SDS011;12713;51.624;4.924;2023-07-29T06:45:07;9.88;;;4.82;;
24547;SDS011;12713;51.624;4.924;2023-07-29T06:47:33;6.70;;;4.50;;
24547;SDS011;12713;51.624;4.924;2023-07-29T06:50:00;8.25;;;4.53;;
24547;SDS011;12713;51.624;4.924;2023-07-29T06:52:26;7.68;;;4.78;;
24547;SDS011;12713;51.624;4.924;2023-07-29T06:54:52;10.00;;;5.07;;
24547;SDS011;12713;51.624;4.924;2023-07-29T06:57:18;7.50;;;4.32;;
24547;SDS011;12713;51.624;4.924;2023-07-29T06:59:44;7.35;;;4.38;;
24547;SDS011;12713;51.624;4.924;2023-07-29T07:02:10;7.35;;;4.47;;
24547;SDS011;12713;51.624;4.924;2023-07-29T07:04:36;6.55;;;3.92;;
24547;SDS011;12713;51.624;4.924;2023-07-29T07:07:05;6.63;;;3.83;;
24547;SDS011;12713;51.624;4.924;2023-07-29T07:09:31;8.30;;;4.38;;
24547;SDS011;12713;51.624;4.924;2023-07-29T07:11:57;10.48;;;4.40;;
24547;SDS011;12713;51.624;4.924;2023-07-29T07:14:23;10.07;;;3.90;;
24547;SDS011;12713;51.624;4.924;2023-07-29T07:16:49;6.68;;;3.72;;
24547;SDS011;12713;51.624;4.924;2023-07-29T07:19:15;6.32;;;3.47;;
24547;SDS011;12713;51.624;4.924;2023-07-29T07:21:41;7.25;;;3.50;;
24547;SDS011;12713;51.624;4.924;2023-07-29T07:24:07;4.78;;;3.17;;
24547;SDS011;12713;51.624;4.924;2023-07-29T07:26:33;6.13;;;3.20;;
24547;SDS011;12713;51.624;4.924;2023-07-29T07:28:59;5.80;;;3.38;;
24547;SDS011;12713;51.624;4.924;2023-07-29T07:31:25;4.32;;;3.45;;
24547;SDS011;12713;51.624;4.924;2023-07-29T07:33:51;5.22;;;3.40;;
24547;SDS011;12713;51.624;4.924;2023-07-29T07:36:17;5.15;;;2.83;;
24547;SDS011;12713;51.624;4.924;2023-07-29T07:38:43;5.65;;;2.65;;
24547;SDS011;12713;51.624;4.924;2023-07-29T07:41:09;4.72;;;2.92;;
24547;SDS011;12713;51.624;4.924;2023-07-29T07:43:35;3.53;;;2.40;;
24547;SDS011;12713;51.624;4.924;2023-07-29T07:46:01;3.33;;;2.47;;
24547;SDS011;12713;51.624;4.924;2023-07-29T07:48:27;4.53;;;2.78;;
24547;SDS011;12713;51.624;4.924;2023-07-29T07:50:53;4.85;;;3.00;;
24547;SDS011;12713;51.624;4.924;2023-07-29T07:53:19;6.90;;;2.70;;
24547;SDS011;12713;51.624;4.924;2023-07-29T07:55:46;3.15;;;2.17;;
24547;SDS011;12713;51.624;4.924;2023-07-29T07:58:12;4.65;;;2.28;;
24547;SDS011;12713;51.624;4.924;2023-07-29T08:00:38;5.30;;;2.33;;
24547;SDS011;12713;51.624;4.924;2023-07-29T08:03:04;3.83;;;2.17;;
24547;SDS011;12713;51.624;4.924;2023-07-29T08:05:30;4.55;;;2.75;;
24547;SDS011;12713;51.624;4.924;2023-07-29T08:07:57;5.30;;;2.35;;
24547;SDS011;12713;51.624;4.924;2023-07-29T08:10:23;4.55;;;2.55;;
24547;SDS011;12713;51.624;4.924;2023-07-29T08:12:49;3.42;;;2.40;;
24547;SDS011;12713;51.624;4.924;2023-07-29T08:15:15;3.90;;;2.20;;
24547;SDS011;12713;51.624;4.924;2023-07-29T08:17:45;4.38;;;2.35;;
24547;SDS011;12713;51.624;4.924;2023-07-29T08:20:12;6.55;;;2.17;;
24547;SDS011;12713;51.624;4.924;2023-07-29T08:22:38;3.95;;;2.63;;
24547;SDS011;12713;51.624;4.924;2023-07-29T08:25:04;5.00;;;2.75;;
24547;SDS011;12713;51.624;4.924;2023-07-29T08:27:32;6.47;;;2.83;;
24547;SDS011;12713;51.624;4.924;2023-07-29T08:29:58;5.05;;;2.50;;
24547;SDS011;12713;51.624;4.924;2023-07-29T08:32:25;6.13;;;2.58;;
24547;SDS011;12713;51.624;4.924;2023-07-29T08:34:56;3.78;;;2.50;;
24547;SDS011;12713;51.624;4.924;2023-07-29T08:37:25;5.63;;;2.78;;
24547;SDS011;12713;51.624;4.924;2023-07-29T08:39:54;3.08;;;2.38;;
24547;SDS011;12713;51.624;4.924;2023-07-29T08:42:27;4.57;;;2.60;;
24547;SDS011;12713;51.624;4.924;2023-07-29T08:44:55;4.00;;;2.53;;
24547;SDS011;12713;51.624;4.924;2023-07-29T08:47:21;3.33;;;2.30;;
24547;SDS011;12713;51.624;4.924;2023-07-29T08:49:50;3.17;;;1.80;;
24547;SDS011;12713;51.624;4.924;2023-07-29T08:52:17;3.95;;;2.50;;
24547;SDS011;12713;51.624;4.924;2023-07-29T08:54:46;4.45;;;2.60;;
24547;SDS011;12713;51.624;4.924;2023-07-29T08:57:13;4.13;;;2.45;;
24547;SDS011;12713;51.624;4.924;2023-07-29T08:59:39;2.47;;;2.05;;
24547;SDS011;12713;51.624;4.924;2023-07-29T09:02:06;6.03;;;2.30;;
24547;SDS011;12713;51.624;4.924;2023-07-29T09:04:33;2.40;;;2.00;;
24547;SDS011;12713;51.624;4.924;2023-07-29T09:06:59;3.90;;;1.90;;
24547;SDS011;12713;51.624;4.924;2023-07-29T09:09:26;3.05;;;2.03;;
24547;SDS011;12713;51.624;4.924;2023-07-29T09:11:52;7.40;;;2.85;;
24547;SDS011;12713;51.624;4.924;2023-07-29T09:14:18;3.47;;;2.38;;
24547;SDS011;12713;51.624;4.924;2023-07-29T09:16:44;3.22;;;2.00;;
24547;SDS011;12713;51.624;4.924;2023-07-29T09:19:10;5.60;;;1.80;;
24547;SDS011;12713;51.624;4.924;2023-07-29T09:21:38;3.90;;;1.90;;
24547;SDS011;12713;51.624;4.924;2023-07-29T09:24:05;2.60;;;2.00;;
24547;SDS011;12713;51.624;4.924;2023-07-29T09:26:32;2.53;;;1.90;;
24547;SDS011;12713;51.624;4.924;2023-07-29T09:28:58;3.85;;;2.20;;
24547;SDS011;12713;51.624;4.924;2023-07-29T09:31:25;2.70;;;1.70;;
24547;SDS011;12713;51.624;4.924;2023-07-29T09:33:58;3.90;;;1.80;;
24547;SDS011;12713;51.624;4.924;2023-07-29T09:36:25;4.15;;;2.05;;
24547;SDS011;12713;51.624;4.924;2023-07-29T09:38:55;4.32;;;1.83;;
24547;SDS011;12713;51.624;4.924;2023-07-29T09:41:22;2.85;;;1.70;;
24547;SDS011;12713;51.624;4.924;2023-07-29T09:43:51;3.25;;;1.70;;
24547;SDS011;12713;51.624;4.924;2023-07-29T09:46:22;2.25;;;1.70;;
24547;SDS011;12713;51.624;4.924;2023-07-29T09:48:48;3.75;;;1.90;;
24547;SDS011;12713;51.624;4.924;2023-07-29T09:51:15;2.38;;;1.67;;
24547;SDS011;12713;51.624;4.924;2023-07-29T09:53:42;3.83;;;2.28;;
24547;SDS011;12713;51.624;4.924;2023-07-29T09:56:09;3.42;;;1.70;;
24547;SDS011;12713;51.624;4.924;2023-07-29T09:58:35;3.03;;;2.03;;
24547;SDS011;12713;51.624;4.924;2023-07-29T10:01:04;4.22;;;2.08;;
24547;SDS011;12713;51.624;4.924;2023-07-29T10:06:32;3.25;;;2.03;;
24547;SDS011;12713;51.624;4.924;2023-07-29T10:09:05;6.65;;;2.13;;
24547;SDS011;12713;51.624;4.924;2023-07-29T10:11:32;4.55;;;2.00;;
24547;SDS011;12713;51.624;4.924;2023-07-29T10:14:00;5.88;;;2.15;;
24547;SDS011;12713;51.624;4.924;2023-07-29T10:22:22;3.30;;;2.63;;
24547;SDS011;12713;51.624;4.924;2023-07-29T10:28:03;4.85;;;2.83;;
24547;SDS011;12713;51.624;4.924;2023-07-29T10:30:48;3.17;;;2.70;;
24547;SDS011;12713;51.624;4.924;2023-07-29T10:33:29;5.60;;;2.78;;
24547;SDS011;12713;51.624;4.924;2023-07-29T10:35:59;3.78;;;3.35;;
24547;SDS011;12713;51.624;4.924;2023-07-29T10:38:45;6.55;;;3.30;;
24547;SDS011;12713;51.624;4.924;2023-07-29T10:41:16;3.70;;;3.40;;
24547;SDS011;12713;51.624;4.924;2023-07-29T10:43:43;5.60;;;4.07;;
24547;SDS011;12713;51.624;4.924;2023-07-29T10:46:15;4.80;;;3.60;;
24547;SDS011;12713;51.624;4.924;2023-07-29T10:51:37;5.15;;;3.45;;
24547;SDS011;12713;51.624;4.924;2023-07-29T10:54:13;5.60;;;3.65;;
24547;SDS011;12713;51.624;4.924;2023-07-29T10:56:46;5.97;;;3.65;;
24547;SDS011;12713;51.624;4.924;2023-07-29T11:02:06;4.90;;;3.10;;
24547;SDS011;12713;51.624;4.924;2023-07-29T11:04:31;11.10;;;4.30;;
24547;SDS011;12713;51.624;4.924;2023-07-29T11:07:42;8.90;;;3.80;;
24547;SDS011;12713;51.624;4.924;2023-07-29T11:09:54;8.45;;;3.83;;
24547;SDS011;12713;51.624;4.924;2023-07-29T11:12:43;9.52;;;3.65;;
24547;SDS011;12713;51.624;4.924;2023-07-29T11:15:25;5.80;;;3.88;;
24547;SDS011;12713;51.624;4.924;2023-07-29T11:20:18;4.85;;;3.28;;
24547;SDS011;12713;51.624;4.924;2023-07-29T11:22:45;7.35;;;3.58;;
24547;SDS011;12713;51.624;4.924;2023-07-29T11:25:12;7.50;;;4.43;;
24547;SDS011;12713;51.624;4.924;2023-07-29T11:27:38;6.75;;;4.40;;
24547;SDS011;12713;51.624;4.924;2023-07-29T11:30:05;4.80;;;4.28;;
24547;SDS011;12713;51.624;4.924;2023-07-29T11:32:33;11.55;;;5.20;;
24547;SDS011;12713;51.624;4.924;2023-07-29T11:35:08;7.30;;;4.95;;
24547;SDS011;12713;51.624;4.924;2023-07-29T11:37:35;13.48;;;5.50;;
24547;SDS011;12713;51.624;4.924;2023-07-29T11:40:02;7.30;;;4.60;;
24547;SDS011;12713;51.624;4.924;2023-07-29T11:42:28;7.63;;;4.38;;
24547;SDS011;12713;51.624;4.924;2023-07-29T11:44:57;8.15;;;4.28;;
24547;SDS011;12713;51.624;4.924;2023-07-29T11:47:24;7.35;;;4.13;;
24547;SDS011;12713;51.624;4.924;2023-07-29T11:49:50;6.68;;;4.30;;
24547;SDS011;12713;51.624;4.924;2023-07-29T11:52:16;4.00;;;3.20;;
24547;SDS011;12713;51.624;4.924;2023-07-29T11:54:44;4.78;;;3.47;;
24547;SDS011;12713;51.624;4.924;2023-07-29T11:57:10;5.03;;;3.40;;
24547;SDS011;12713;51.624;4.924;2023-07-29T11:59:37;5.80;;;3.60;;
24547;SDS011;12713;51.624;4.924;2023-07-29T12:02:05;5.15;;;3.38;;
24547;SDS011;12713;51.624;4.924;2023-07-29T12:04:31;4.55;;;3.67;;
24547;SDS011;12713;51.624;4.924;2023-07-29T12:06:59;4.50;;;3.25;;
24547;SDS011;12713;51.624;4.924;2023-07-29T12:09:25;5.45;;;3.65;;
24547;SDS011;12713;51.624;4.924;2023-07-29T12:11:52;7.05;;;4.70;;
24547;SDS011;12713;51.624;4.924;2023-07-29T12:14:18;5.90;;;4.75;;
24547;SDS011;12713;51.624;4.924;2023-07-29T12:16:44;6.30;;;4.05;;
24547;SDS011;12713;51.624;4.924;2023-07-29T12:19:14;5.95;;;5.00;;
24547;SDS011;12713;51.624;4.924;2023-07-29T12:21:42;6.82;;;5.15;;
24547;SDS011;12713;51.624;4.924;2023-07-29T12:24:08;6.15;;;4.78;;
24547;SDS011;12713;51.624;4.924;2023-07-29T12:26:35;5.43;;;4.50;;
24547;SDS011;12713;51.624;4.924;2023-07-29T12:29:11;6.80;;;4.40;;
24547;SDS011;12713;51.624;4.924;2023-07-29T12:31:39;7.97;;;5.63;;
24547;SDS011;12713;51.624;4.924;2023-07-29T12:34:05;4.93;;;4.43;;
24547;SDS011;12713;51.624;4.924;2023-07-29T12:36:44;4.93;;;4.35;;
24547;SDS011;12713;51.624;4.924;2023-07-29T12:39:20;4.68;;;3.92;;
24547;SDS011;12713;51.624;4.924;2023-07-29T12:41:48;4.75;;;3.65;;
24547;SDS011;12713;51.624;4.924;2023-07-29T12:44:14;6.18;;;3.28;;
24547;SDS011;12713;51.624;4.924;2023-07-29T12:46:40;3.80;;;3.20;;
24547;SDS011;12713;51.624;4.924;2023-07-29T12:49:06;4.07;;;2.90;;
24547;SDS011;12713;51.624;4.924;2023-07-29T12:51:32;6.57;;;3.08;;
24547;SDS011;12713;51.624;4.924;2023-07-29T12:53:59;5.38;;;3.03;;
24547;SDS011;12713;51.624;4.924;2023-07-29T12:56:25;5.68;;;2.80;;
24547;SDS011;12713;51.624;4.924;2023-07-29T12:58:51;5.45;;;3.05;;
24547;SDS011;12713;51.624;4.924;2023-07-29T13:01:17;5.10;;;3.00;;
24547;SDS011;12713;51.624;4.924;2023-07-29T13:03:47;4.55;;;2.50;;
24547;SDS011;12713;51.624;4.924;2023-07-29T13:06:13;2.60;;;2.25;;
24547;SDS011;12713;51.624;4.924;2023-07-29T13:08:40;3.17;;;2.55;;
24547;SDS011;12713;51.624;4.924;2023-07-29T13:11:07;3.35;;;2.53;;
24547;SDS011;12713;51.624;4.924;2023-07-29T13:13:33;4.10;;;3.20;;
24547;SDS011;12713;51.624;4.924;2023-07-29T13:15:59;3.50;;;2.95;;
24547;SDS011;12713;51.624;4.924;2023-07-29T13:18:26;7.53;;;3.72;;
24547;SDS011;12713;51.624;4.924;2023-07-29T13:20:52;4.05;;;3.08;;
24547;SDS011;12713;51.624;4.924;2023-07-29T13:23:18;4.82;;;3.30;;
24547;SDS011;12713;51.624;4.924;2023-07-29T13:25:44;3.88;;;3.05;;
24547;SDS011;12713;51.624;4.924;2023-07-29T13:28:10;4.07;;;2.40;;
24547;SDS011;12713;51.624;4.924;2023-07-29T13:30:38;3.28;;;2.45;;
24547;SDS011;12713;51.624;4.924;2023-07-29T13:33:04;3.55;;;2.97;;
24547;SDS011;12713;51.624;4.924;2023-07-29T13:35:30;3.13;;;2.63;;
24547;SDS011;12713;51.624;4.924;2023-07-29T13:37:56;3.97;;;2.97;;
24547;SDS011;12713;51.624;4.924;2023-07-29T13:40:22;3.80;;;3.30;;
24547;SDS011;12713;51.624;4.924;2023-07-29T13:42:48;5.57;;;3.40;;
24547;SDS011;12713;51.624;4.924;2023-07-29T13:45:14;3.20;;;2.70;;
24547;SDS011;12713;51.624;4.924;2023-07-29T13:47:40;4.22;;;2.97;;
24547;SDS011;12713;51.624;4.924;2023-07-29T13:50:09;3.80;;;3.42;;
24547;SDS011;12713;51.624;4.924;2023-07-29T13:52:36;4.07;;;3.10;;
24547;SDS011;12713;51.624;4.924;2023-07-29T13:55:02;4.90;;;3.60;;
24547;SDS011;12713;51.624;4.924;2023-07-29T13:57:29;3.25;;;2.95;;
24547;SDS011;12713;51.624;4.924;2023-07-29T13:59:55;3.80;;;3.03;;
24547;SDS011;12713;51.624;4.924;2023-07-29T14:02:21;3.13;;;2.60;;
24547;SDS011;12713;51.624;4.924;2023-07-29T14:04:47;3.42;;;2.90;;
24547;SDS011;12713;51.624;4.924;2023-07-29T14:07:13;2.78;;;2.47;;
24547;SDS011;12713;51.624;4.924;2023-07-29T14:09:39;3.42;;;2.40;;
24547;SDS011;12713;51.624;4.924;2023-07-29T14:12:05;4.05;;;2.22;;
24547;SDS011;12713;51.624;4.924;2023-07-29T14:14:32;4.28;;;2.40;;
24547;SDS011;12713;51.624;4.924;2023-07-29T14:16:59;5.97;;;2.28;;
24547;SDS011;12713;51.624;4.924;2023-07-29T14:19:25;3.13;;;2.55;;
24547;SDS011;12713;51.624;4.924;2023-07-29T14:21:51;4.15;;;2.15;;
24547;SDS011;12713;51.624;4.924;2023-07-29T14:24:17;4.07;;;3.15;;
24547;SDS011;12713;51.624;4.924;2023-07-29T14:26:46;4.15;;;3.03;;
24547;SDS011;12713;51.624;4.924;2023-07-29T14:29:12;5.47;;;2.88;;
24547;SDS011;12713;51.624;4.924;2023-07-29T14:31:38;3.63;;;2.70;;
24547;SDS011;12713;51.624;4.924;2023-07-29T14:34:04;3.47;;;3.10;;
24547;SDS011;12713;51.624;4.924;2023-07-29T14:36:30;5.50;;;3.28;;
24547;SDS011;12713;51.624;4.924;2023-07-29T14:38:56;3.67;;;3.38;;
24547;SDS011;12713;51.624;4.924;2023-07-29T14:41:22;5.60;;;3.13;;
24547;SDS011;12713;51.624;4.924;2023-07-29T14:43:48;5.90;;;3.17;;
24547;SDS011;12713;51.624;4.924;2023-07-29T14:46:14;3.60;;;3.17;;
24547;SDS011;12713;51.624;4.924;2023-07-29T14:48:40;3.80;;;3.40;;
24547;SDS011;12713;51.624;4.924;2023-07-29T14:51:07;3.20;;;2.90;;
24547;SDS011;12713;51.624;4.924;2023-07-29T14:53:33;4.10;;;3.67;;
24547;SDS011;12713;51.624;4.924;2023-07-29T14:55:59;3.25;;;2.92;;
24547;SDS011;12713;51.624;4.924;2023-07-29T14:58:25;4.55;;;3.95;;
24547;SDS011;12713;51.624;4.924;2023-07-29T15:00:51;6.82;;;4.57;;
24547;SDS011;12713;51.624;4.924;2023-07-29T15:03:18;8.15;;;4.90;;
24547;SDS011;12713;51.624;4.924;2023-07-29T15:05:46;7.93;;;5.65;;
24547;SDS011;12713;51.624;4.924;2023-07-29T15:08:12;10.48;;;7.20;;
24547;SDS011;12713;51.624;4.924;2023-07-29T15:10:43;11.75;;;6.55;;